createdAt,value
2023-05-16T00:01:03.885Z,99875.25
2023-05-16T00:03:52.434Z,99877.38
2023-05-16T00:06:42.480Z,99876.06
2023-05-16T00:09:30.966Z,99882.06
2023-05-16T00:12:19.760Z,99872.53
2023-05-16T00:15:12.583Z,99870.31
2023-05-16T00:18:01.292Z,99873.47
2023-05-16T00:20:49.895Z,99869.50
2023-05-16T00:23:39.768Z,99867.84
2023-05-16T00:26:28.290Z,99867.28
2023-05-16T00:29:16.817Z,99866.91
2023-05-16T00:32:08.570Z,99863.03
2023-05-16T00:34:57.276Z,99859.03
2023-05-16T00:37:45.864Z,99866.19
2023-05-16T00:40:35.693Z,99865.09
2023-05-16T00:43:24.214Z,99868.88
2023-05-16T00:46:12.752Z,99865.56
2023-05-16T00:49:01.366Z,99853.84
2023-05-16T00:51:49.929Z,99866.25
2023-05-16T00:54:38.483Z,99799.97
2023-05-16T00:57:28.454Z,99859.25
2023-05-16T01:00:17.429Z,99861.81
2023-05-16T01:03:06.535Z,99821.69
2023-05-16T01:05:55.189Z,99868.50
2023-05-16T01:08:43.738Z,99865.22
2023-05-16T01:11:37.517Z,99871.31
2023-05-16T01:14:32.906Z,99870.72
2023-05-16T01:17:26.794Z,99866.38
2023-05-16T01:20:23.448Z,99870.13
2023-05-16T01:23:23.944Z,99856.06
2023-05-16T01:26:19.327Z,99799.03
2023-05-16T01:29:08.468Z,99871.53
2023-05-16T01:31:58.382Z,99863.56
2023-05-16T01:34:46.975Z,99853.34
2023-05-16T01:37:38.133Z,99870.94
2023-05-16T01:40:33.396Z,99872.25
2023-05-16T01:43:30.490Z,99871.25
2023-05-16T01:46:24.417Z,99838.88
2023-05-16T01:49:17.819Z,99879.00
2023-05-16T01:52:10.277Z,99867.84
2023-05-16T01:55:00.378Z,99847.78
2023-05-16T01:57:50.108Z,99880.06
2023-05-16T02:00:41.138Z,99827.56
2023-05-16T02:03:29.692Z,99881.56
2023-05-16T02:06:18.312Z,99882.25
2023-05-16T02:09:06.806Z,99880.38
2023-05-16T02:11:55.338Z,99889.16
2023-05-16T02:14:43.804Z,99886.22
2023-05-16T02:17:33.760Z,99892.44
2023-05-16T02:20:22.285Z,99894.78
2023-05-16T02:23:10.777Z,99892.91
2023-05-16T02:25:59.284Z,99891.84
2023-05-16T02:28:49.479Z,99893.47
2023-05-16T02:31:38.047Z,99886.47
2023-05-16T02:34:28.451Z,99893.94
2023-05-16T02:37:17.160Z,99887.97
2023-05-16T02:40:07.431Z,99890.00
2023-05-16T02:42:55.953Z,99890.00
2023-05-16T02:45:47.556Z,99890.00
2023-05-16T02:48:36.061Z,99895.00
2023-05-16T02:51:27.341Z,99873.47
2023-05-16T02:54:15.820Z,99893.13
2023-05-16T02:57:04.448Z,99897.34
2023-05-16T02:59:52.921Z,99899.91
2023-05-16T03:02:41.804Z,99903.03
2023-05-16T03:05:30.629Z,99898.78
2023-05-16T03:08:20.636Z,99905.09
2023-05-16T03:11:09.152Z,99904.84
2023-05-16T03:14:01.575Z,99898.06
2023-05-16T03:16:50.843Z,99902.84
2023-05-16T03:19:39.552Z,99899.56
2023-05-16T03:22:28.059Z,99899.56
2023-05-16T03:25:17.967Z,99902.03
2023-05-16T03:28:06.973Z,99909.28
2023-05-16T03:30:55.429Z,99905.63
2023-05-16T03:33:44.022Z,99913.03
2023-05-16T03:36:32.459Z,99909.13
2023-05-16T03:39:20.953Z,99904.88
2023-05-16T03:42:11.027Z,99911.81
2023-05-16T03:44:59.521Z,99915.97
2023-05-16T03:47:49.903Z,99914.53
2023-05-16T03:50:40.774Z,99919.78
2023-05-16T03:53:29.579Z,99917.22
2023-05-16T03:56:18.359Z,99925.28
2023-05-16T03:59:08.319Z,99924.44
2023-05-16T04:01:56.870Z,99930.03
2023-05-16T04:04:45.879Z,99932.50
2023-05-16T04:07:34.662Z,99932.56
2023-05-16T04:10:23.286Z,99944.69
2023-05-16T04:13:11.795Z,99936.91
2023-05-16T04:16:01.760Z,99942.94
2023-05-16T04:18:50.222Z,99931.81
2023-05-16T04:21:38.651Z,99942.06
2023-05-16T04:24:29.937Z,99947.00
2023-05-16T04:27:18.559Z,99939.91
2023-05-16T04:30:08.361Z,99951.13
2023-05-16T04:32:59.391Z,99947.88
2023-05-16T04:35:48.561Z,99952.19
2023-05-16T04:38:37.712Z,99953.25
2023-05-16T04:41:26.289Z,99959.34
2023-05-16T04:44:14.810Z,99957.06
2023-05-16T04:47:03.519Z,99961.38
2023-05-16T04:49:53.398Z,99958.16
2023-05-16T04:52:41.849Z,99960.09
2023-05-16T04:55:30.696Z,99970.78
2023-05-16T04:58:19.605Z,99966.59
2023-05-16T05:01:08.082Z,99921.00
2023-05-16T05:03:56.585Z,99922.66
2023-05-16T05:06:46.462Z,99973.56
2023-05-16T05:09:34.934Z,99968.63
2023-05-16T05:12:23.670Z,99970.72
2023-05-16T05:15:13.244Z,99964.81
2023-05-16T05:18:01.986Z,99971.63
2023-05-16T05:20:52.693Z,99979.53
2023-05-16T05:23:42.589Z,99979.16
2023-05-16T05:26:31.308Z,99972.31
2023-05-16T05:29:20.234Z,99982.16
2023-05-16T05:32:09.394Z,99949.69
2023-05-16T05:34:58.010Z,99985.94
2023-05-16T05:37:46.506Z,99987.22
2023-05-16T05:40:36.400Z,99988.03
2023-05-16T05:43:24.869Z,99993.81
2023-05-16T05:46:13.430Z,100000.25
2023-05-16T05:49:02.179Z,100003.81
2023-05-16T05:51:52.154Z,100002.59
2023-05-16T05:54:40.941Z,100000.94
2023-05-16T05:57:30.766Z,99995.97
2023-05-16T06:00:19.600Z,99997.44
2023-05-16T06:03:08.131Z,100011.47
2023-05-16T06:05:56.753Z,100011.56
2023-05-16T06:08:45.381Z,100002.22
2023-05-16T06:11:33.858Z,99993.97
2023-05-16T06:14:23.712Z,99951.81
2023-05-16T06:17:12.333Z,100004.63
2023-05-16T06:20:00.927Z,100011.03
2023-05-16T06:22:49.467Z,100020.91
2023-05-16T06:25:38.009Z,100018.44
2023-05-16T06:28:26.585Z,100023.81
2023-05-16T06:31:16.464Z,99983.78
2023-05-16T06:34:05.054Z,100030.38
2023-05-16T06:36:53.504Z,100031.53
2023-05-16T06:39:42.269Z,100023.38
2023-05-16T06:42:30.787Z,100037.00
2023-05-16T06:45:19.343Z,100047.41
2023-05-16T06:48:09.472Z,100048.81
2023-05-16T06:50:58.390Z,100048.75
2023-05-16T06:53:46.893Z,100048.31
2023-05-16T06:56:35.894Z,100048.38
2023-05-16T06:59:25.203Z,100053.97
2023-05-16T07:02:15.453Z,100041.66
2023-05-16T07:05:06.012Z,100055.34
2023-05-16T07:07:54.974Z,100053.94
2023-05-16T07:10:43.608Z,100052.06
2023-05-16T07:13:33.704Z,100059.69
2023-05-16T07:16:24.259Z,100039.41
2023-05-16T07:19:12.834Z,100056.56
2023-05-16T07:22:02.847Z,100060.28
2023-05-16T07:24:53.274Z,100053.69
2023-05-16T07:27:44.635Z,100059.94
2023-05-16T07:30:33.422Z,100073.00
2023-05-16T07:33:21.985Z,100064.69
2023-05-16T07:36:17.026Z,100048.84
2023-05-16T07:39:07.295Z,100070.53
2023-05-16T07:41:55.951Z,100068.88
2023-05-16T07:44:45.259Z,100074.22
2023-05-16T07:47:33.858Z,100070.75
2023-05-16T07:50:22.501Z,100072.91
2023-05-16T07:53:11.301Z,100075.91
2023-05-16T07:56:01.202Z,100069.63
2023-05-16T07:58:50.421Z,100064.22
2023-05-16T08:01:38.928Z,100076.13
2023-05-16T08:04:27.504Z,100076.97
2023-05-16T08:07:16.079Z,100072.25
2023-05-16T08:10:05.090Z,100094.88
2023-05-16T08:12:55.020Z,99993.91
2023-05-16T08:15:43.627Z,100091.44
2023-05-16T08:18:32.235Z,100097.13
2023-05-16T08:21:20.790Z,100092.47
2023-05-16T08:24:11.197Z,100097.72
2023-05-16T08:26:59.789Z,100061.31
2023-05-16T08:29:49.599Z,100091.13
2023-05-16T08:32:38.271Z,100098.16
2023-05-16T08:35:27.017Z,100091.94
2023-05-16T08:38:15.692Z,100093.44
2023-05-16T08:41:04.527Z,100096.88
2023-05-16T08:43:53.507Z,100081.56
2023-05-16T08:46:44.288Z,100096.75
2023-05-16T08:49:33.591Z,100100.63
2023-05-16T08:52:22.867Z,100090.09
2023-05-16T08:55:12.638Z,100100.94
2023-05-16T08:58:01.804Z,100106.84
2023-05-16T09:00:50.573Z,100101.38
2023-05-16T09:03:40.988Z,100083.94
2023-05-16T09:06:29.808Z,100096.81
2023-05-16T09:09:18.313Z,100111.34
2023-05-16T09:12:07.379Z,100121.44
2023-05-16T09:14:55.975Z,100076.94
2023-05-16T09:17:46.672Z,100120.84
2023-05-16T09:20:40.345Z,100123.38
2023-05-16T09:23:28.932Z,100123.69
2023-05-16T09:26:17.645Z,100116.50
2023-05-16T09:29:12.097Z,100127.34
2023-05-16T09:32:06.590Z,100121.97
2023-05-16T09:34:58.540Z,100129.09
2023-05-16T09:37:48.472Z,100130.38
2023-05-16T09:40:41.776Z,100138.66
2023-05-16T09:43:30.385Z,100132.44
2023-05-16T09:46:19.841Z,100146.38
2023-05-16T09:49:08.699Z,100143.25
2023-05-16T09:51:57.320Z,100116.72
2023-05-16T09:54:48.919Z,100132.50
2023-05-16T09:57:39.519Z,100126.88
2023-05-16T10:00:31.178Z,100133.53
2023-05-16T10:03:20.041Z,100142.59
2023-05-16T10:06:09.254Z,100138.59
2023-05-16T10:08:57.878Z,100138.44
2023-05-16T10:11:48.107Z,100147.81
2023-05-16T10:14:37.895Z,100139.91
2023-05-16T10:17:27.395Z,100138.00
2023-05-16T10:20:16.698Z,100134.84
2023-05-16T10:23:05.680Z,100135.50
2023-05-16T10:25:55.163Z,100135.19
2023-05-16T10:28:45.311Z,100143.22
2023-05-16T10:31:34.138Z,100142.03
2023-05-16T10:34:23.355Z,100145.69
2023-05-16T10:37:11.842Z,100157.84
2023-05-16T10:40:01.217Z,100154.91
2023-05-16T10:42:56.939Z,100159.06
2023-05-16T10:45:55.679Z,100165.72
2023-05-16T10:48:44.225Z,100167.75
2023-05-16T10:51:39.851Z,100165.31
2023-05-16T10:54:36.073Z,100156.56
2023-05-16T10:57:25.188Z,100170.63
2023-05-16T11:00:23.456Z,100166.75
2023-05-16T11:03:25.324Z,100177.13
2023-05-16T11:06:14.107Z,100175.56
2023-05-16T11:09:06.580Z,100177.25
2023-05-16T11:12:00.592Z,100187.63
2023-05-16T11:14:52.647Z,100184.00
2023-05-16T11:17:43.434Z,100197.66
2023-05-16T11:20:36.073Z,100198.19
2023-05-16T11:23:26.957Z,100199.91
2023-05-16T11:26:15.633Z,100186.84
2023-05-16T11:29:04.682Z,100192.84
2023-05-16T11:31:54.151Z,100206.78
2023-05-16T11:34:43.218Z,100194.78
2023-05-16T11:37:33.235Z,100200.34
2023-05-16T11:40:22.186Z,100197.91
2023-05-16T11:43:10.970Z,100196.56
2023-05-16T11:46:00.032Z,100216.50
2023-05-16T11:48:48.825Z,100208.47
2023-05-16T11:51:39.221Z,100196.06
2023-05-16T11:54:29.295Z,100204.50
2023-05-16T11:57:17.939Z,100202.13
2023-05-16T12:00:11.572Z,100211.72
2023-05-16T12:03:04.394Z,100210.28
2023-05-16T12:05:54.522Z,100218.03
2023-05-16T12:08:51.210Z,100224.59
2023-05-16T12:11:42.723Z,100223.84
2023-05-16T12:14:31.372Z,100228.06
2023-05-16T12:17:22.235Z,100194.63
2023-05-16T12:20:14.347Z,100227.13
2023-05-16T12:23:02.911Z,100230.84
2023-05-16T12:25:52.987Z,100232.69
2023-05-16T12:28:44.558Z,100241.31
2023-05-16T12:31:37.012Z,100243.50
2023-05-16T12:34:29.769Z,100242.38
2023-05-16T12:37:18.310Z,100248.22
2023-05-16T12:40:09.442Z,100255.00
2023-05-16T12:42:58.216Z,100262.97
2023-05-16T12:45:53.698Z,100255.56
2023-05-16T12:48:44.122Z,100251.94
2023-05-16T12:51:35.375Z,100258.19
2023-05-16T12:54:24.260Z,100256.50
2023-05-16T12:57:12.818Z,100265.19
2023-05-16T13:00:01.286Z,100255.25
2023-05-16T13:02:52.335Z,100262.97
2023-05-16T13:05:41.054Z,100264.56
2023-05-16T13:08:29.781Z,100266.72
2023-05-16T13:11:19.041Z,100270.41
2023-05-16T13:14:07.570Z,100282.38
2023-05-16T13:16:56.105Z,100270.19
2023-05-16T13:19:48.256Z,100273.44
2023-05-16T13:22:37.702Z,100276.38
2023-05-16T13:25:26.578Z,100272.38
2023-05-16T13:28:15.877Z,100267.88
2023-05-16T13:31:04.516Z,100272.03
2023-05-16T13:33:53.105Z,100273.72
2023-05-16T13:36:53.798Z,100263.13
2023-05-16T13:39:42.784Z,100282.47
2023-05-16T13:42:31.379Z,100278.25
2023-05-16T13:45:19.884Z,100281.41
2023-05-16T13:48:08.451Z,100283.44
2023-05-16T13:50:57.080Z,100270.00
2023-05-16T13:53:46.950Z,100288.00
2023-05-16T13:56:35.497Z,100282.75
2023-05-16T13:59:41.107Z,100291.72
2023-05-16T14:02:32.557Z,100294.28
2023-05-16T14:05:21.101Z,100279.59
2023-05-16T14:08:09.841Z,100273.69
2023-05-16T14:10:59.760Z,100282.69
2023-05-16T14:13:49.401Z,100274.56
2023-05-16T14:16:38.157Z,100280.00
2023-05-16T14:19:26.869Z,100303.41
2023-05-16T14:22:15.436Z,100287.72
2023-05-16T14:25:04.686Z,100297.28
2023-05-16T14:27:54.557Z,100284.25
2023-05-16T14:30:43.261Z,100295.59
2023-05-16T14:33:32.846Z,100296.25
2023-05-16T14:36:21.431Z,100292.34
2023-05-16T14:39:10.093Z,100296.31
2023-05-16T14:41:58.608Z,100300.03
2023-05-16T14:44:48.472Z,100300.69
2023-05-16T14:47:37.088Z,100295.97
2023-05-16T14:50:25.675Z,100293.16
2023-05-16T14:53:14.209Z,100296.25
2023-05-16T14:56:03.818Z,100296.34
2023-05-16T14:58:52.365Z,100295.75
2023-05-16T15:01:42.434Z,100300.34
2023-05-16T15:04:31.120Z,100304.63
2023-05-16T15:07:20.588Z,100295.28
2023-05-16T15:10:10.180Z,100295.63
2023-05-16T15:12:59.788Z,100286.41
2023-05-16T15:15:48.397Z,100281.16
2023-05-16T15:18:38.490Z,100288.22
2023-05-16T15:21:27.147Z,100289.00
2023-05-16T15:24:16.614Z,100282.06
2023-05-16T15:27:05.392Z,100295.44
2023-05-16T15:29:53.901Z,100286.25
2023-05-16T15:32:45.351Z,100298.72
2023-05-16T15:35:35.676Z,100290.41
2023-05-16T15:38:27.253Z,100280.59
2023-05-16T15:41:32.010Z,100257.31
2023-05-16T15:44:24.769Z,100288.47
2023-05-16T15:47:13.373Z,100298.56
2023-05-16T15:50:02.033Z,100289.66
2023-05-16T15:52:52.066Z,100290.69
2023-05-16T15:55:40.935Z,100283.47
2023-05-16T15:58:29.464Z,100291.38
2023-05-16T16:01:20.468Z,100295.88
2023-05-16T16:04:14.701Z,100283.09
2023-05-16T16:07:03.227Z,100284.69
2023-05-16T16:09:53.168Z,100285.06
2023-05-16T16:12:41.720Z,100282.34
2023-05-16T16:15:33.183Z,100284.25
2023-05-16T16:18:22.148Z,100286.94
2023-05-16T16:21:10.983Z,100282.28
2023-05-16T16:23:59.483Z,100286.84
2023-05-16T16:26:49.329Z,100288.25
2023-05-16T16:29:37.938Z,100259.75
2023-05-16T16:32:26.450Z,100284.03
2023-05-16T16:35:15.147Z,100284.75
2023-05-16T16:38:07.134Z,100283.06
2023-05-16T16:40:55.760Z,100275.91
2023-05-16T16:43:45.725Z,100283.44
2023-05-16T16:46:34.395Z,100267.69
2023-05-16T16:49:22.956Z,100278.59
2023-05-16T16:52:11.570Z,100278.59
2023-05-16T16:55:00.078Z,100256.44
2023-05-16T16:57:48.670Z,100289.66
2023-05-16T17:00:38.774Z,100290.94
2023-05-16T17:03:27.512Z,100290.34
2023-05-16T17:06:16.097Z,100286.00
2023-05-16T17:09:06.813Z,100299.66
2023-05-16T17:11:55.591Z,100298.16
2023-05-16T17:14:44.113Z,100308.59
2023-05-16T17:17:34.085Z,100302.00
2023-05-16T17:20:22.654Z,100299.91
2023-05-16T17:23:11.304Z,100309.81
2023-05-16T17:25:59.828Z,100313.78
2023-05-16T17:28:49.787Z,100308.97
2023-05-16T17:31:38.268Z,100311.56
2023-05-16T17:34:28.204Z,100321.53
2023-05-16T17:37:17.290Z,100319.16
2023-05-16T17:40:09.919Z,100322.44
2023-05-16T17:42:58.492Z,100320.22
2023-05-16T17:45:47.201Z,100325.47
2023-05-16T17:48:35.982Z,100322.53
2023-05-16T17:51:26.133Z,100289.34
2023-05-16T17:54:15.575Z,100333.50
2023-05-16T17:57:06.012Z,100311.41
2023-05-16T17:59:54.910Z,100334.88
2023-05-16T18:02:43.892Z,100337.47
2023-05-16T18:05:32.632Z,100336.00
2023-05-16T18:08:23.148Z,100344.31
2023-05-16T18:11:11.978Z,100355.44
2023-05-16T18:14:00.687Z,100359.97
2023-05-16T18:16:49.209Z,100353.53
2023-05-16T18:19:37.882Z,100362.06
2023-05-16T18:22:27.558Z,100352.03
2023-05-16T18:25:17.669Z,100368.84
2023-05-16T18:28:06.351Z,100361.56
2023-05-16T18:30:54.974Z,100370.63
2023-05-16T18:33:43.562Z,100374.50
2023-05-16T18:36:32.145Z,100378.75
2023-05-16T18:39:21.203Z,100291.47
2023-05-16T18:42:11.421Z,100388.75
2023-05-16T18:44:59.986Z,100385.06
2023-05-16T18:47:48.671Z,100379.94
2023-05-16T18:50:37.336Z,100399.75
2023-05-16T18:53:25.969Z,100401.28
2023-05-16T18:56:14.528Z,100404.13
2023-05-16T18:59:04.404Z,100404.47
2023-05-16T19:01:52.898Z,100410.16
2023-05-16T19:04:41.538Z,100419.31
2023-05-16T19:07:30.033Z,100419.97
2023-05-16T19:10:18.678Z,100423.09
2023-05-16T19:13:08.758Z,100417.22
2023-05-16T19:15:58.736Z,100421.53
2023-05-16T19:18:47.793Z,100429.47
2023-05-16T19:21:36.789Z,100430.34
2023-05-16T19:24:25.279Z,100431.22
2023-05-16T19:27:13.854Z,100436.28
2023-05-16T19:30:02.561Z,100441.69
2023-05-16T19:32:52.482Z,100447.56
2023-05-16T19:35:41.046Z,100443.69
2023-05-16T19:38:29.710Z,100450.22
2023-05-16T19:41:18.236Z,100438.03
2023-05-16T19:44:07.004Z,100443.25
2023-05-16T19:46:55.733Z,100447.84
2023-05-16T19:49:45.876Z,100456.97
2023-05-16T19:52:34.717Z,100435.28
2023-05-16T19:55:23.548Z,100469.06
2023-05-16T19:58:12.116Z,100464.09
2023-05-16T20:01:00.681Z,100468.84
2023-05-16T20:03:49.345Z,100464.75
2023-05-16T20:06:39.265Z,100473.25
2023-05-16T20:09:28.567Z,100478.63
2023-05-16T20:12:17.171Z,100473.88
2023-05-16T20:15:08.782Z,100494.59
2023-05-16T20:17:57.702Z,100482.97
2023-05-16T20:20:46.234Z,100443.81
2023-05-16T20:23:38.112Z,100489.38
2023-05-16T20:26:27.217Z,100498.47
2023-05-16T20:29:15.878Z,100479.88
2023-05-16T20:32:04.893Z,100466.22
2023-05-16T20:34:53.401Z,100497.88
2023-05-16T20:37:42.310Z,100501.38
2023-05-16T20:40:32.153Z,100488.56
2023-05-16T20:43:20.676Z,100501.41
2023-05-16T20:46:09.371Z,100501.41
2023-05-16T20:48:57.969Z,100509.66
2023-05-16T20:51:46.580Z,100514.81
2023-05-16T20:54:35.341Z,100474.06
2023-05-16T20:57:25.388Z,100516.50
2023-05-16T21:00:14.811Z,100442.72
2023-05-16T21:03:03.379Z,100511.31
2023-05-16T21:05:52.397Z,100500.75
2023-05-16T21:08:40.894Z,100512.94
2023-05-16T21:11:32.060Z,100515.63
2023-05-16T21:14:22.191Z,100517.09
2023-05-16T21:17:10.793Z,100519.78
2023-05-16T21:19:59.424Z,100526.16
2023-05-16T21:22:48.035Z,100519.50
2023-05-16T21:25:36.853Z,100526.94
2023-05-16T21:28:25.408Z,100519.66
2023-05-16T21:31:15.238Z,100525.38
2023-05-16T21:34:03.868Z,100524.75
2023-05-16T21:36:53.784Z,100531.09
2023-05-16T21:39:42.329Z,100527.75
2023-05-16T21:42:31.116Z,100537.06
2023-05-16T21:45:19.849Z,100544.72
2023-05-16T21:48:09.835Z,100544.78
2023-05-16T21:50:58.475Z,100539.09
2023-05-16T21:53:47.107Z,100543.22
2023-05-16T21:56:36.939Z,100539.19
2023-05-16T21:59:25.603Z,100536.03
2023-05-16T22:02:14.107Z,100523.00
2023-05-16T22:05:04.927Z,100556.03
2023-05-16T22:07:53.759Z,100543.78
2023-05-16T22:10:42.381Z,100567.31
2023-05-16T22:13:31.009Z,100516.69
2023-05-16T22:16:19.769Z,100564.25
2023-05-16T22:19:08.982Z,100564.59
2023-05-16T22:21:59.225Z,100558.31
2023-05-16T22:24:48.005Z,100567.16
2023-05-16T22:27:36.722Z,100579.47
2023-05-16T22:30:25.314Z,100575.69
2023-05-16T22:33:13.959Z,100583.53
2023-05-16T22:36:03.167Z,100582.25
2023-05-16T22:38:56.065Z,100583.22
2023-05-16T22:41:44.613Z,100579.19
2023-05-16T22:44:33.181Z,100593.75
2023-05-16T22:47:21.703Z,100589.34
2023-05-16T22:50:11.131Z,100582.59
2023-05-16T22:52:59.674Z,100585.59
2023-05-16T22:55:49.547Z,100586.16
2023-05-16T22:58:38.069Z,100584.94
2023-05-16T23:01:26.907Z,100590.16
2023-05-16T23:04:16.125Z,100583.63
2023-05-16T23:07:04.722Z,100602.56
2023-05-16T23:09:53.232Z,100603.13
2023-05-16T23:12:43.122Z,100607.28
2023-05-16T23:15:31.736Z,100608.88
2023-05-16T23:18:20.361Z,100602.47
2023-05-16T23:21:09.491Z,100607.84
2023-05-16T23:23:58.098Z,100602.84
2023-05-16T23:26:46.540Z,100601.00
2023-05-16T23:29:36.419Z,100567.47
2023-05-16T23:32:25.000Z,100597.31
2023-05-16T23:35:13.531Z,100609.28
2023-05-16T23:38:02.100Z,100611.97
2023-05-16T23:40:50.595Z,100617.63
2023-05-16T23:43:39.143Z,100624.00
2023-05-16T23:46:29.031Z,100611.06
2023-05-16T23:49:17.535Z,100627.63
2023-05-16T23:52:06.731Z,100629.38
2023-05-16T23:54:55.275Z,100619.41
2023-05-16T23:57:43.808Z,100626.31
